createdAt,value
2022-10-16T00:01:12.088Z,64.07
2022-10-16T00:03:40.453Z,57.88
2022-10-16T00:06:08.301Z,63.53
2022-10-16T00:08:36.158Z,65.07
2022-10-16T00:11:06.417Z,64.75
2022-10-16T00:13:35.048Z,61.53
2022-10-16T00:16:02.961Z,54.08
2022-10-16T00:18:30.965Z,57.50
2022-10-16T00:21:04.140Z,54.63
2022-10-16T00:23:31.772Z,59.00
2022-10-16T00:26:02.258Z,57.38
2022-10-16T00:28:29.729Z,61.08
2022-10-16T00:31:03.224Z,62.58
2022-10-16T00:33:30.659Z,69.50
2022-10-16T00:36:03.643Z,63.92
2022-10-16T00:38:31.079Z,62.10
2022-10-16T00:41:01.237Z,62.20
2022-10-16T00:43:40.843Z,64.05
2022-10-16T00:46:28.698Z,60.75
2022-10-16T00:49:02.550Z,58.72
2022-10-16T00:51:36.421Z,63.47
2022-10-16T00:54:07.482Z,55.15
2022-10-16T00:56:34.952Z,54.28
2022-10-16T00:59:08.732Z,55.33
2022-10-16T01:01:35.737Z,60.42
2022-10-16T01:04:02.875Z,61.20
2022-10-16T01:06:57.827Z,59.45
2022-10-16T01:09:45.173Z,58.92
2022-10-16T01:12:31.510Z,62.90
2022-10-16T01:15:06.097Z,65.47
2022-10-16T01:17:44.053Z,65.00
2022-10-16T01:20:21.559Z,63.00
2022-10-16T01:23:00.838Z,59.65
2022-10-16T01:25:49.160Z,61.58
2022-10-16T01:28:18.418Z,62.17
2022-10-16T01:30:46.344Z,62.25
2022-10-16T01:33:25.544Z,62.65
2022-10-16T01:35:57.090Z,61.30
2022-10-16T01:38:36.398Z,65.28
2022-10-16T01:41:10.664Z,62.83
2022-10-16T01:43:43.503Z,66.10
2022-10-16T01:46:11.981Z,63.92
2022-10-16T01:48:40.579Z,63.53
2022-10-16T01:51:11.179Z,65.70
2022-10-16T01:53:43.099Z,63.13
2022-10-16T01:56:17.344Z,62.42
2022-10-16T01:58:52.119Z,62.78
2022-10-16T02:01:24.672Z,59.60
2022-10-16T02:03:55.051Z,63.50
2022-10-16T02:06:24.564Z,60.60
2022-10-16T02:08:51.589Z,57.80
2022-10-16T02:11:18.603Z,59.20
2022-10-16T02:13:49.948Z,59.45
2022-10-16T02:16:17.015Z,59.58
2022-10-16T02:18:44.960Z,56.00
2022-10-16T02:21:20.157Z,61.05
2022-10-16T02:23:55.506Z,61.92
2022-10-16T02:27:06.841Z,62.05
2022-10-16T02:29:38.879Z,60.17
2022-10-16T02:32:09.636Z,59.38
2022-10-16T02:34:38.089Z,59.25
2022-10-16T02:37:06.454Z,61.30
2022-10-16T02:39:34.685Z,59.35
2022-10-16T02:42:06.379Z,61.38
2022-10-16T02:44:33.219Z,60.97
2022-10-16T02:47:00.253Z,62.35
2022-10-16T02:49:27.168Z,62.25
2022-10-16T02:51:54.192Z,57.25
2022-10-16T02:54:21.144Z,59.08
2022-10-16T02:56:48.253Z,55.88
2022-10-16T02:59:15.283Z,55.30
2022-10-16T03:01:45.497Z,58.28
2022-10-16T03:04:12.431Z,65.65
2022-10-16T03:06:39.470Z,65.57
2022-10-16T03:09:06.268Z,62.63
2022-10-16T03:11:35.572Z,59.25
2022-10-16T03:14:02.421Z,55.40
2022-10-16T03:16:29.543Z,56.78
2022-10-16T03:18:56.417Z,57.53
2022-10-16T03:21:23.525Z,58.92
2022-10-16T03:23:50.427Z,56.40
2022-10-16T03:26:17.681Z,58.83
2022-10-16T03:28:44.621Z,56.03
2022-10-16T03:31:11.847Z,57.88
2022-10-16T03:33:38.710Z,58.47
2022-10-16T03:36:05.887Z,55.08
2022-10-16T03:38:32.739Z,56.90
2022-10-16T03:40:59.793Z,54.63
2022-10-16T03:43:26.710Z,58.25
2022-10-16T03:45:53.803Z,64.90
2022-10-16T03:48:20.880Z,53.90
2022-10-16T03:50:49.379Z,60.38
2022-10-16T03:53:16.284Z,57.20
2022-10-16T03:55:44.362Z,53.78
2022-10-16T03:58:12.251Z,51.10
2022-10-16T04:00:46.100Z,53.05
2022-10-16T04:03:13.331Z,52.30
2022-10-16T04:05:41.041Z,55.42
2022-10-16T04:08:08.316Z,53.08
2022-10-16T04:10:35.383Z,50.10
2022-10-16T04:13:04.904Z,51.95
2022-10-16T04:15:32.155Z,57.50
2022-10-16T04:17:59.017Z,59.08
2022-10-16T04:20:26.078Z,54.13
2022-10-16T04:22:53.275Z,60.08
2022-10-16T04:25:20.309Z,59.88
2022-10-16T04:27:47.285Z,58.10
2022-10-16T04:30:16.687Z,57.97
2022-10-16T04:32:43.689Z,61.65
2022-10-16T04:35:10.781Z,59.78
2022-10-16T04:37:37.607Z,65.80
2022-10-16T04:40:05.275Z,61.85
2022-10-16T04:42:34.559Z,62.58
2022-10-16T04:45:01.628Z,59.47
2022-10-16T04:47:28.885Z,70.00
2022-10-16T04:49:57.975Z,66.07
2022-10-16T04:52:26.099Z,66.00
2022-10-16T04:54:53.314Z,67.30
2022-10-16T04:57:20.249Z,68.13
2022-10-16T04:59:47.314Z,67.32
2022-10-16T05:02:16.528Z,66.22
2022-10-16T05:04:46.053Z,64.22
2022-10-16T05:07:13.109Z,63.65
2022-10-16T05:09:42.621Z,59.40
2022-10-16T05:12:09.557Z,60.25
2022-10-16T05:14:39.139Z,65.97
2022-10-16T05:17:06.120Z,63.92
2022-10-16T05:19:33.361Z,66.72
2022-10-16T05:22:00.302Z,62.85
2022-10-16T05:24:27.934Z,71.30
2022-10-16T05:26:55.103Z,63.30
2022-10-16T05:29:22.400Z,64.45
2022-10-16T05:31:54.592Z,62.53
2022-10-16T05:34:22.231Z,62.53
2022-10-16T05:36:49.376Z,65.38
2022-10-16T05:39:16.928Z,62.63
2022-10-16T05:41:47.690Z,69.18
2022-10-16T05:44:14.837Z,65.93
2022-10-16T05:46:43.964Z,66.20
2022-10-16T05:49:13.518Z,65.10
2022-10-16T05:51:40.666Z,68.20
2022-10-16T05:54:07.804Z,66.38
2022-10-16T05:56:34.751Z,65.63
2022-10-16T05:59:01.846Z,69.18
2022-10-16T06:01:32.064Z,70.53
2022-10-16T06:03:59.635Z,82.13
2022-10-16T06:06:29.358Z,83.63
2022-10-16T06:08:57.609Z,83.55
2022-10-16T06:11:27.513Z,87.78
2022-10-16T06:13:57.715Z,94.35
2022-10-16T06:16:26.667Z,91.15
2022-10-16T06:18:56.821Z,87.78
2022-10-16T06:21:26.288Z,88.15
2022-10-16T06:23:54.711Z,86.93
2022-10-16T06:26:24.407Z,82.55
2022-10-16T06:28:51.861Z,84.38
2022-10-16T06:31:19.128Z,82.40
2022-10-16T06:33:49.417Z,79.95
2022-10-16T06:36:17.973Z,77.68
2022-10-16T06:38:45.846Z,81.93
2022-10-16T06:41:17.599Z,79.22
2022-10-16T06:43:48.958Z,79.03
2022-10-16T06:46:18.737Z,79.85
2022-10-16T06:48:46.297Z,80.38
2022-10-16T06:51:16.988Z,77.95
2022-10-16T06:54:02.814Z,77.10
2022-10-16T06:56:32.266Z,79.47
2022-10-16T06:59:02.601Z,79.35
2022-10-16T07:01:30.129Z,78.60
2022-10-16T07:03:57.884Z,79.80
2022-10-16T07:06:26.020Z,75.63
2022-10-16T07:08:53.969Z,79.38
2022-10-16T07:11:24.184Z,78.40
2022-10-16T07:13:54.775Z,75.55
2022-10-16T07:16:26.631Z,76.28
2022-10-16T07:18:59.876Z,75.45
2022-10-16T07:21:30.235Z,77.22
2022-10-16T07:23:59.665Z,77.88
2022-10-16T07:26:27.858Z,79.60
2022-10-16T07:28:55.333Z,79.60
2022-10-16T07:31:22.536Z,87.13
2022-10-16T07:33:50.661Z,76.38
2022-10-16T07:36:23.290Z,78.40
2022-10-16T07:38:52.834Z,78.30
2022-10-16T07:41:25.047Z,79.07
2022-10-16T07:43:54.493Z,80.45
2022-10-16T07:46:23.513Z,79.03
2022-10-16T07:48:53.561Z,80.28
2022-10-16T07:51:24.923Z,85.43
2022-10-16T07:53:52.483Z,83.68
2022-10-16T07:56:20.935Z,84.95
2022-10-16T07:58:50.317Z,83.00
2022-10-16T08:01:18.052Z,85.85
2022-10-16T08:03:47.245Z,86.70
2022-10-16T08:06:14.654Z,85.93
2022-10-16T08:08:41.842Z,82.70
2022-10-16T08:11:09.568Z,86.13
2022-10-16T08:13:37.274Z,84.75
2022-10-16T08:16:08.957Z,83.53
2022-10-16T08:18:37.791Z,83.47
2022-10-16T08:21:05.962Z,82.32
2022-10-16T08:23:34.139Z,78.30
2022-10-16T08:26:07.441Z,80.40
2022-10-16T08:28:35.924Z,77.63
2022-10-16T08:31:14.650Z,79.97
2022-10-16T08:33:44.569Z,78.78
2022-10-16T08:36:12.110Z,74.07
2022-10-16T08:38:41.610Z,75.75
2022-10-16T08:41:16.894Z,73.68
2022-10-16T08:44:24.257Z,75.90
2022-10-16T08:49:26.890Z,71.78
2022-10-16T08:52:01.251Z,73.90
2022-10-16T08:54:41.796Z,76.70
2022-10-16T08:57:21.585Z,75.00
2022-10-16T08:59:52.423Z,75.40
2022-10-16T09:02:28.604Z,74.25
2022-10-16T09:05:01.753Z,72.25
2022-10-16T09:07:42.759Z,72.82
2022-10-16T09:10:42.175Z,73.03
2022-10-16T09:13:29.660Z,70.43
2022-10-16T09:16:22.918Z,69.28
2022-10-16T09:19:05.983Z,70.50
2022-10-16T09:21:41.171Z,70.45
2022-10-16T09:24:18.215Z,69.27
2022-10-16T09:26:48.682Z,70.45
2022-10-16T09:29:17.936Z,71.63
2022-10-16T09:31:45.132Z,70.18
2022-10-16T09:34:39.109Z,70.45
2022-10-16T09:37:13.635Z,66.28
2022-10-16T09:39:49.183Z,66.10
2022-10-16T09:42:32.612Z,61.92
2022-10-16T09:44:59.961Z,63.58
2022-10-16T09:47:29.942Z,68.25
2022-10-16T09:50:03.340Z,67.20
2022-10-16T09:52:31.773Z,66.28
2022-10-16T09:55:18.420Z,64.60
2022-10-16T09:57:52.715Z,62.28
2022-10-16T10:00:20.964Z,61.38
2022-10-16T10:02:48.724Z,57.97
2022-10-16T10:05:26.371Z,57.08
2022-10-16T10:08:09.402Z,57.70
2022-10-16T10:10:44.263Z,55.92
2022-10-16T10:13:22.309Z,54.03
2022-10-16T10:15:49.832Z,55.42
2022-10-16T10:18:23.984Z,55.90
2022-10-16T10:21:02.144Z,52.65
2022-10-16T10:23:31.882Z,53.80
2022-10-16T10:26:13.986Z,54.17
2022-10-16T10:28:59.411Z,53.38
2022-10-16T10:31:29.485Z,53.88
2022-10-16T10:34:15.331Z,52.55
2022-10-16T10:36:45.134Z,50.50
2022-10-16T10:39:20.085Z,50.00
2022-10-16T10:42:17.764Z,48.45
2022-10-16T10:45:06.929Z,47.13
2022-10-16T10:47:51.936Z,44.50
2022-10-16T10:50:22.163Z,46.03
2022-10-16T10:52:59.757Z,44.58
2022-10-16T10:55:42.215Z,44.95
2022-10-16T10:58:41.351Z,41.10
2022-10-16T11:01:13.219Z,43.28
2022-10-16T11:03:58.870Z,40.90
2022-10-16T11:09:19.712Z,40.45
2022-10-16T11:12:09.987Z,40.03
2022-10-16T11:14:47.278Z,38.53
2022-10-16T11:17:31.995Z,38.78
2022-10-16T11:20:20.959Z,37.67
2022-10-16T11:23:14.286Z,36.10
2022-10-16T11:25:42.367Z,34.95
2022-10-16T11:28:17.762Z,36.08
2022-10-16T11:30:51.213Z,34.53
2022-10-16T11:33:25.986Z,35.97
2022-10-16T11:35:55.904Z,35.07
2022-10-16T11:38:55.858Z,35.97
2022-10-16T11:41:25.779Z,37.22
2022-10-16T11:44:21.742Z,35.33
2022-10-16T11:47:54.414Z,36.38
2022-10-16T11:50:18.583Z,35.95
2022-10-16T11:53:13.871Z,36.03
2022-10-16T11:55:46.808Z,38.38
2022-10-16T11:58:32.070Z,36.20
2022-10-16T12:01:18.010Z,36.83
2022-10-16T12:03:54.535Z,37.05
2022-10-16T12:06:37.280Z,37.30
2022-10-16T12:09:04.975Z,35.38
2022-10-16T12:11:38.630Z,36.45
2022-10-16T12:14:13.419Z,36.90
2022-10-16T12:16:53.181Z,37.08
2022-10-16T12:19:21.726Z,35.92
2022-10-16T12:21:51.091Z,35.80
2022-10-16T12:24:38.001Z,36.45
2022-10-16T12:27:08.186Z,35.45
2022-10-16T12:29:43.986Z,35.58
2022-10-16T12:33:01.069Z,36.10
2022-10-16T12:35:32.877Z,33.92
2022-10-16T12:38:09.495Z,33.05
2022-10-16T12:40:39.186Z,33.85
2022-10-16T12:43:24.909Z,34.08
2022-10-16T12:46:20.949Z,34.95
2022-10-16T12:49:05.900Z,32.03
2022-10-16T12:51:33.743Z,34.05
2022-10-16T12:54:07.884Z,32.90
2022-10-16T12:57:22.364Z,34.28
2022-10-16T13:00:08.049Z,34.17
2022-10-16T13:02:47.046Z,33.55
2022-10-16T13:05:14.097Z,34.08
2022-10-16T13:07:44.083Z,32.92
2022-10-16T13:10:28.569Z,34.63
2022-10-16T13:13:31.441Z,33.10
2022-10-16T13:16:15.892Z,33.67
2022-10-16T13:18:59.728Z,32.05
2022-10-16T13:21:26.582Z,32.55
2022-10-16T13:24:09.328Z,33.17
2022-10-16T13:27:00.705Z,33.10
2022-10-16T13:29:33.071Z,31.90
2022-10-16T13:32:10.294Z,33.60
2022-10-16T13:34:46.838Z,32.47
2022-10-16T13:37:21.885Z,30.48
2022-10-16T13:39:51.853Z,30.88
2022-10-16T13:42:28.237Z,31.20
2022-10-16T13:44:57.425Z,29.52
2022-10-16T13:47:30.362Z,31.75
2022-10-16T13:50:03.939Z,29.83
2022-10-16T13:52:31.166Z,29.55
2022-10-16T13:55:01.764Z,28.88
2022-10-16T13:57:32.637Z,28.85
2022-10-16T13:59:59.844Z,28.75
2022-10-16T14:02:28.936Z,28.38
2022-10-16T14:04:58.866Z,28.00
2022-10-16T14:07:29.489Z,27.40
2022-10-16T14:09:58.864Z,27.33
2022-10-16T14:12:28.165Z,28.33
2022-10-16T14:14:58.424Z,26.27
2022-10-16T14:17:28.864Z,26.90
2022-10-16T14:20:04.064Z,26.60
2022-10-16T14:22:44.048Z,27.35
2022-10-16T14:25:25.991Z,25.05
2022-10-16T14:28:04.964Z,26.10
2022-10-16T14:30:36.107Z,26.77
2022-10-16T14:33:21.068Z,27.88
2022-10-16T14:36:06.134Z,25.40
2022-10-16T14:38:34.453Z,25.30
2022-10-16T14:41:02.720Z,25.88
2022-10-16T14:43:37.686Z,26.38
2022-10-16T14:46:14.591Z,24.85
2022-10-16T14:48:48.963Z,25.37
2022-10-16T14:51:20.912Z,25.77
2022-10-16T14:53:48.439Z,24.33
2022-10-16T14:56:22.122Z,25.42
2022-10-16T14:58:49.927Z,24.42
2022-10-16T15:01:17.277Z,25.92
2022-10-16T15:03:47.327Z,25.38
2022-10-16T15:06:16.729Z,25.92
2022-10-16T15:08:46.614Z,25.52
2022-10-16T15:11:16.595Z,24.58
2022-10-16T15:13:43.789Z,23.67
2022-10-16T15:16:16.399Z,24.52
2022-10-16T15:18:44.032Z,23.42
2022-10-16T15:21:31.130Z,24.02
2022-10-16T15:23:59.566Z,24.83
2022-10-16T15:26:28.361Z,24.33
2022-10-16T15:28:57.839Z,23.65
2022-10-16T15:31:25.142Z,23.75
2022-10-16T15:33:57.095Z,25.00
2022-10-16T15:36:34.893Z,23.45
2022-10-16T15:39:01.803Z,24.83
2022-10-16T15:41:31.680Z,24.15
2022-10-16T15:43:58.921Z,24.65
2022-10-16T15:46:26.437Z,23.98
2022-10-16T15:48:58.281Z,26.45
2022-10-16T15:51:28.610Z,26.20
2022-10-16T15:53:55.621Z,25.58
2022-10-16T15:56:23.496Z,25.92
2022-10-16T15:58:50.407Z,26.55
2022-10-16T16:01:18.046Z,27.02
2022-10-16T16:03:47.393Z,28.08
2022-10-16T16:06:15.597Z,27.88
2022-10-16T16:08:42.935Z,29.77
2022-10-16T16:11:12.984Z,27.95
2022-10-16T16:13:41.170Z,30.25
2022-10-16T16:16:18.731Z,28.90
2022-10-16T16:18:50.434Z,29.65
2022-10-16T16:21:17.687Z,30.05
2022-10-16T16:23:44.677Z,30.70
2022-10-16T16:26:15.945Z,29.90
2022-10-16T16:28:44.327Z,30.90
2022-10-16T16:31:11.723Z,30.25
2022-10-16T16:33:43.987Z,29.90
2022-10-16T16:36:15.736Z,30.35
2022-10-16T16:38:43.350Z,30.48
2022-10-16T16:41:23.710Z,30.38
2022-10-16T16:43:52.362Z,31.08
2022-10-16T16:46:20.363Z,31.55
2022-10-16T16:48:47.751Z,30.40
2022-10-16T16:51:20.997Z,30.48
2022-10-16T16:53:50.576Z,30.20
2022-10-16T16:56:20.697Z,30.80
2022-10-16T16:58:52.308Z,32.22
2022-10-16T17:01:21.581Z,31.30
2022-10-16T17:03:53.066Z,32.40
2022-10-16T17:06:29.572Z,31.60
2022-10-16T17:08:57.652Z,31.63
2022-10-16T17:11:28.643Z,32.55
2022-10-16T17:13:59.386Z,35.00
2022-10-16T17:16:39.783Z,33.25
2022-10-16T17:19:11.731Z,34.30
2022-10-16T17:21:41.712Z,34.63
2022-10-16T17:24:10.162Z,33.08
2022-10-16T17:26:43.800Z,33.78
2022-10-16T17:29:13.447Z,32.63
2022-10-16T17:31:42.282Z,33.45
2022-10-16T17:34:12.954Z,33.75
2022-10-16T17:36:47.380Z,34.28
2022-10-16T17:39:18.571Z,31.33
2022-10-16T17:41:48.999Z,32.63
2022-10-16T17:44:22.059Z,34.67
2022-10-16T17:46:54.353Z,33.55
2022-10-16T17:51:56.171Z,33.75
2022-10-16T17:54:24.656Z,32.63
2022-10-16T17:56:54.271Z,34.03
2022-10-16T17:59:23.666Z,35.30
2022-10-16T18:01:52.685Z,32.30
2022-10-16T18:04:23.994Z,33.75
2022-10-16T18:06:54.397Z,33.80
2022-10-16T18:09:23.387Z,36.08
2022-10-16T18:12:00.080Z,34.55
2022-10-16T18:14:31.707Z,34.92
2022-10-16T18:17:02.275Z,33.53
2022-10-16T18:19:30.073Z,32.90
2022-10-16T18:21:59.250Z,32.85
2022-10-16T18:24:27.501Z,32.28
2022-10-16T18:26:57.279Z,34.15
2022-10-16T18:29:27.762Z,33.05
2022-10-16T18:31:57.725Z,31.23
2022-10-16T18:34:27.849Z,32.63
2022-10-16T18:36:58.088Z,34.17
2022-10-16T18:39:28.502Z,36.97
2022-10-16T18:42:00.221Z,36.25
2022-10-16T18:44:30.007Z,33.35
2022-10-16T18:46:59.727Z,32.97
2022-10-16T18:49:28.284Z,34.60
2022-10-16T18:51:57.730Z,32.83
2022-10-16T18:54:31.984Z,32.63
2022-10-16T18:57:00.653Z,35.10
2022-10-16T18:59:33.581Z,34.38
2022-10-16T19:02:05.206Z,34.75
2022-10-16T19:04:33.834Z,34.42
2022-10-16T19:07:02.764Z,34.05
2022-10-16T19:09:34.622Z,33.65
2022-10-16T19:12:03.697Z,33.92
2022-10-16T19:14:33.211Z,34.03
2022-10-16T19:17:04.608Z,34.28
2022-10-16T19:19:34.300Z,36.53
2022-10-16T19:22:21.906Z,33.72
2022-10-16T19:24:49.648Z,34.30
2022-10-16T19:27:18.229Z,34.88
2022-10-16T19:29:48.731Z,36.47
2022-10-16T19:32:19.354Z,35.60
2022-10-16T19:34:51.426Z,34.45
2022-10-16T19:37:19.834Z,34.72
2022-10-16T19:39:49.497Z,35.15
2022-10-16T19:42:17.164Z,36.08
2022-10-16T19:44:45.334Z,35.40
2022-10-16T19:47:13.235Z,36.30
2022-10-16T19:49:40.369Z,35.63
2022-10-16T19:52:07.583Z,37.38
2022-10-16T19:54:36.341Z,37.13
2022-10-16T19:57:03.803Z,36.45
2022-10-16T19:59:31.210Z,37.33
2022-10-16T20:01:58.920Z,37.08
2022-10-16T20:04:26.333Z,36.42
2022-10-16T20:06:56.667Z,35.38
2022-10-16T20:09:23.881Z,33.97
2022-10-16T20:11:50.981Z,34.20
2022-10-16T20:14:18.503Z,33.08
2022-10-16T20:16:46.180Z,33.65
2022-10-16T20:19:13.360Z,36.03
2022-10-16T20:21:40.985Z,35.60
2022-10-16T20:24:08.456Z,40.53
2022-10-16T20:26:36.917Z,39.50
2022-10-16T20:29:05.745Z,37.35
2022-10-16T20:31:35.967Z,37.80
2022-10-16T20:34:08.739Z,38.00
2022-10-16T20:36:37.636Z,39.35
2022-10-16T20:39:06.367Z,39.50
2022-10-16T20:41:35.491Z,41.25
2022-10-16T20:44:05.447Z,38.95
2022-10-16T20:46:33.046Z,39.25
2022-10-16T20:49:10.420Z,36.97
2022-10-16T20:51:44.125Z,39.65
2022-10-16T20:54:11.727Z,39.90
2022-10-16T20:56:42.937Z,38.30
2022-10-16T20:59:11.798Z,38.22
2022-10-16T21:01:39.686Z,41.83
2022-10-16T21:04:08.759Z,41.83
2022-10-16T21:06:39.274Z,41.38
2022-10-16T21:09:07.544Z,39.92
2022-10-16T21:11:38.938Z,41.25
2022-10-16T21:14:08.381Z,43.28
2022-10-16T21:16:35.949Z,42.50
2022-10-16T21:19:03.731Z,45.50
2022-10-16T21:21:33.788Z,44.63
2022-10-16T21:24:01.181Z,43.20
2022-10-16T21:26:31.729Z,44.25
2022-10-16T21:29:04.702Z,42.80
2022-10-16T21:31:32.376Z,43.63
2022-10-16T21:33:59.802Z,43.03
2022-10-16T21:36:30.036Z,44.13
2022-10-16T21:39:11.206Z,46.20
2022-10-16T21:41:41.386Z,45.33
2022-10-16T21:44:09.260Z,45.47
2022-10-16T21:46:39.487Z,47.35
2022-10-16T21:49:10.016Z,45.08
2022-10-16T21:51:39.826Z,47.92
2022-10-16T21:54:09.809Z,47.47
2022-10-16T21:56:39.268Z,43.92
2022-10-16T21:59:06.806Z,46.70
2022-10-16T22:01:34.015Z,46.30
2022-10-16T22:04:01.096Z,44.70
2022-10-16T22:06:28.896Z,48.38
2022-10-16T22:09:01.268Z,52.05
2022-10-16T22:11:36.526Z,49.13
2022-10-16T22:14:05.674Z,50.40
2022-10-16T22:16:33.705Z,48.42
2022-10-16T22:19:07.078Z,46.83
2022-10-16T22:21:39.732Z,45.70
2022-10-16T22:24:10.093Z,48.05
2022-10-16T22:26:38.614Z,47.80
2022-10-16T22:29:06.788Z,49.15
2022-10-16T22:31:36.580Z,47.47
2022-10-16T22:34:04.759Z,48.25
2022-10-16T22:36:32.795Z,47.33
2022-10-16T22:39:00.372Z,46.08
2022-10-16T22:41:27.575Z,44.92
2022-10-16T22:43:54.551Z,46.47
2022-10-16T22:46:54.540Z,47.20
2022-10-16T22:49:22.210Z,44.95
2022-10-16T22:54:21.610Z,45.10
2022-10-16T22:56:48.873Z,46.60
2022-10-16T22:59:15.776Z,44.78
2022-10-16T23:01:43.070Z,46.20
2022-10-16T23:04:10.038Z,43.55
2022-10-16T23:06:37.294Z,44.95
2022-10-16T23:09:04.513Z,42.33
2022-10-16T23:11:31.769Z,42.70
2022-10-16T23:14:00.951Z,42.22
2022-10-16T23:16:28.215Z,42.55
2022-10-16T23:18:58.299Z,44.25
2022-10-16T23:21:26.015Z,46.58
2022-10-16T23:23:54.379Z,45.97
2022-10-16T23:26:25.346Z,45.10
2022-10-16T23:28:52.549Z,46.83
2022-10-16T23:31:19.960Z,47.53
2022-10-16T23:33:46.904Z,45.67
2022-10-16T23:36:17.880Z,44.80
2022-10-16T23:38:45.649Z,45.30
2022-10-16T23:41:13.717Z,46.72
2022-10-16T23:43:43.003Z,46.92
2022-10-16T23:46:14.054Z,46.40
2022-10-16T23:48:41.311Z,47.13
2022-10-16T23:51:09.699Z,47.95
2022-10-16T23:53:37.149Z,46.33
2022-10-16T23:56:04.714Z,45.42
2022-10-16T23:58:34.114Z,44.83
